Weather History for KI75 - October, 2013

Change the Weather History Date:

Wednesday, October 23, 2013

  Actual Average (KLWD) Record (KLWD)
Temperature  
Mean Temperature 34 °F 50 °F  
Max Temperature 40 °F 61 °F 82 °F (1963)
Min Temperature 27 °F 40 °F 21 °F (1981)
Degree Days  
Heating Degree Days 32 15  
Month to date heating degree days 253  
Since 1 July heating degree days 353  
Cooling Degree Days 0 0  
Month to date cooling degree days 11  
Year to date cooling degree days 944  
Moisture  
Dew Point 31 °F    
Average Humidity 86    
Maximum Humidity 95    
Minimum Humidity 67    
Precipitation  
Precipitation 0.01 in 0.11 in 1.90 in (1977)
Month to date precipitation 2.09  
Sea Level Pressure  
Sea Level Pressure 30.10 in    
Wind  
Wind Speed 6 mph (West)    
Max Wind Speed 10 mph    
Max Gust Speed -    
Visibility 9 miles    
Events Rain    
T = Trace of Precipitation, MM = Missing Value Source: NWS Daily Summary

Daily Weather History Graph

Daily Weather History Graph

Search for Another Location

Airport or City:

Trip Planner

Search our weather history database for the weather conditions in past years. The results will help you decide how hot, cold, wet, or windy it might be!

Date:

Astronomy

Oct. 23, 2013 Rise Set
Actual Time 7:35 AM CDT 6:21 PM CDT
Civil Twilight 7:07 AM CDT 6:49 PM CDT
Nautical Twilight 6:35 AM CDT 7:22 PM CDT
Astronomical Twilight 6:03 AM CDT 7:53 PM CDT
Moon 9:52 PM CDT (10/23) 11:54 AM CDT (10/23)
Length of Visible Light 11h 42m
Length of Day
10h 46m
Waning Gibbous, 79% of the Moon is Illuminated
Oct 23
Waning Gibbous
Oct 26
Last Quarter
Nov 3
New
Nov 9
First Quarter
Nov 17
Full

Hourly Weather History & Observations

Time (CDT) Temp. Windchill Dew Point Humidity Pressure Visibility Wind Dir Wind Speed Gust Speed Precip Events Conditions
12:15 AM 36.7 °F 31.2 °F 28.9 °F 74% 30.07 in 10.0 mi NW 6.9 mph - N/A   Overcast
12:35 AM 36.5 °F 31.0 °F 28.6 °F 73% 30.07 in 10.0 mi NW 6.9 mph - N/A   Overcast
12:55 AM 36.5 °F 31.8 °F 28.8 °F 74% 30.07 in 10.0 mi NW 5.8 mph - N/A   Overcast
1:15 AM 36.5 °F 31.8 °F 28.2 °F 72% 30.07 in 10.0 mi NW 5.8 mph - N/A   Overcast
1:35 AM 36.1 °F 31.4 °F 27.9 °F 72% 30.06 in 10.0 mi NW 5.8 mph - N/A   Overcast
1:55 AM 35.8 °F 30.9 °F 27.3 °F 71% 30.07 in 10.0 mi NW 5.8 mph - N/A   Overcast
2:15 AM 35.6 °F 31.7 °F 27.0 °F 71% 30.07 in 10.0 mi NW 4.6 mph - N/A   Overcast
2:35 AM 35.2 °F 30.3 °F 26.4 °F 70% 30.07 in 10.0 mi NW 5.8 mph - N/A   Overcast
2:55 AM 33.1 °F 30.0 °F 25.9 °F 75% 30.06 in 10.0 mi NW 3.5 mph - N/A   Overcast
3:15 AM 32.2 °F 28.9 °F 25.7 °F 77% 30.06 in 10.0 mi West 3.5 mph - N/A   Mostly Cloudy
3:35 AM 31.1 °F 26.4 °F 25.7 °F 80% 30.06 in 10.0 mi WSW 4.6 mph - N/A   Scattered Clouds
3:55 AM 30.2 °F 26.7 °F 25.7 °F 83% 30.06 in 10.0 mi West 3.5 mph - N/A   Clear
4:15 AM 29.3 °F 24.3 °F 25.7 °F 86% 30.06 in 10.0 mi West 4.6 mph - N/A   Clear
4:35 AM 28.8 °F 22.6 °F 25.7 °F 88% 30.06 in 10.0 mi West 5.8 mph - N/A   Clear
4:55 AM 27.9 °F 22.6 °F 25.2 °F 90% 30.06 in 10.0 mi WNW 4.6 mph - N/A   Clear
5:15 AM 28.2 °F 23.1 °F 26.1 °F 92% 30.07 in 10.0 mi West 4.6 mph - N/A   Clear
5:35 AM 28.8 °F 23.7 °F 26.6 °F 92% 30.08 in 10.0 mi West 4.6 mph - N/A   Clear
5:55 AM 28.4 °F 22.2 °F 26.6 °F 93% 30.09 in 10.0 mi WSW 5.8 mph - N/A   Clear
6:15 AM 29.7 °F 23.7 °F 27.3 °F 91% 30.09 in 10.0 mi WSW 5.8 mph - N/A   Clear
6:35 AM 29.3 °F 24.3 °F 27.0 °F 91% 30.09 in 10.0 mi WSW 4.6 mph - N/A   Clear
6:55 AM 29.3 °F 24.3 °F 27.1 °F 92% 30.09 in 10.0 mi WSW 4.6 mph - N/A   Clear
7:15 AM 29.5 °F 24.5 °F 27.5 °F 92% 30.10 in 10.0 mi West 4.6 mph - N/A   Mostly Cloudy
7:35 AM 29.7 °F 24.7 °F 27.5 °F 92% 30.10 in 10.0 mi WSW 4.6 mph - N/A   Scattered Clouds
7:55 AM 30.2 °F 25.4 °F 28.0 °F 92% 30.10 in 10.0 mi WSW 4.6 mph - N/A   Clear
8:15 AM 31.5 °F 28.1 °F 28.9 °F 90% 30.10 in 10.0 mi SW 3.5 mph - N/A   Mostly Cloudy
8:35 AM 32.0 °F 28.7 °F 29.7 °F 91% 30.11 in 10.0 mi WSW 3.5 mph - N/A   Overcast
8:55 AM 32.9 °F 28.5 °F 30.6 °F 91% 30.12 in 10.0 mi West 4.6 mph - N/A   Mostly Cloudy
9:15 AM 34.0 °F 31.0 °F 31.5 °F 90% 30.12 in 10.0 mi West 3.5 mph - N/A   Mostly Cloudy
9:35 AM 34.7 °F 30.6 °F 30.9 °F 86% 30.11 in 10.0 mi West 4.6 mph - N/A   Overcast
9:55 AM 36.7 °F 32.0 °F 31.3 °F 81% 30.11 in 10.0 mi WSW 5.8 mph - N/A   Mostly Cloudy
10:15 AM 38.8 °F 33.2 °F 30.4 °F 72% 30.12 in 10.0 mi West 8.1 mph - N/A   Scattered Clouds
10:35 AM 39.2 °F 34.2 °F 29.5 °F 68% 30.12 in 10.0 mi West 6.9 mph - N/A   Mostly Cloudy
10:55 AM 39.6 °F 34.0 °F 29.7 °F 68% 30.12 in 10.0 mi WSW 8.1 mph - N/A   Scattered Clouds
11:15 AM 39.7 °F 34.3 °F 29.7 °F 67% 30.12 in 10.0 mi West 8.1 mph - N/A   Mostly Cloudy
11:35 AM 40.3 °F 34.9 °F 30.4 °F 68% 30.11 in 10.0 mi West 8.1 mph - N/A   Scattered Clouds
11:55 AM 39.7 °F 34.3 °F 29.8 °F 68% 30.10 in 10.0 mi WSW 8.1 mph - N/A   Mostly Cloudy
12:15 PM 39.9 °F 34.5 °F 30.0 °F 68% 30.10 in 10.0 mi West 8.1 mph - N/A   Overcast
12:35 PM 38.8 °F 33.2 °F 31.6 °F 75% 30.09 in 10.0 mi SW 8.1 mph - N/A Rain Light Rain
12:55 PM 37.9 °F 30.9 °F 33.1 °F 83% 30.09 in 10.0 mi WSW 10.4 mph - N/A Rain Light Rain
1:15 PM 37.2 °F 31.2 °F 32.7 °F 84% 30.09 in 10.0 mi WSW 8.1 mph - N/A Rain Rain
1:35 PM 36.1 °F 29.9 °F 33.1 °F 89% 30.09 in 5.0 mi WSW 8.1 mph - N/A Rain Rain
1:55 PM 36.0 °F 32.1 °F 33.1 °F 89% 30.08 in 7.0 mi WSW 4.6 mph - N/A Rain Light Rain
2:15 PM 35.8 °F 31.9 °F 33.1 °F 90% 30.07 in 5.0 mi West 4.6 mph - N/A Rain Light Rain
2:35 PM 35.6 °F 31.7 °F 32.9 °F 90% 30.06 in 4.0 mi WSW 4.6 mph - N/A Rain Light Rain
2:55 PM 36.0 °F 33.3 °F 33.6 °F 91% 30.07 in 5.0 mi West 3.5 mph - N/A Rain Light Rain
3:15 PM 36.1 °F 31.4 °F 33.8 °F 91% 30.08 in 5.0 mi WSW 5.8 mph - N/A Rain Light Rain
3:35 PM 35.6 °F 31.7 °F 33.1 °F 91% 30.08 in 5.0 mi WSW 4.6 mph - 0.01 in Rain Light Rain
3:55 PM 35.8 °F 31.9 °F 33.6 °F 92% 30.08 in 5.0 mi WSW 4.6 mph - 0.01 in Rain Rain
4:15 PM 35.6 °F 32.8 °F 33.6 °F 92% 30.09 in 7.0 mi WSW 3.5 mph - N/A Rain Light Rain
4:35 PM 35.8 °F 30.1 °F 33.4 °F 91% 30.09 in 7.0 mi WSW 6.9 mph - N/A   Light Drizzle
4:55 PM 35.8 °F 30.9 °F 33.4 °F 91% 30.09 in 7.0 mi WSW 5.8 mph - N/A   Light Drizzle
5:15 PM 35.6 °F 31.7 °F 33.6 °F 92% 30.09 in 7.0 mi SW 4.6 mph - N/A   Light Drizzle
5:35 PM 35.6 °F 32.8 °F 33.8 °F 93% 30.09 in 7.0 mi WSW 3.5 mph - N/A   Overcast
5:55 PM 36.0 °F 33.3 °F 34.0 °F 93% 30.09 in 7.0 mi SW 3.5 mph - N/A   Light Drizzle
6:15 PM 35.8 °F 30.1 °F 33.8 °F 92% 30.09 in 7.0 mi WSW 6.9 mph - N/A   Overcast
6:35 PM 35.6 °F 32.8 °F 33.6 °F 92% 30.09 in 10.0 mi West 3.5 mph - N/A   Overcast
6:55 PM 35.8 °F 33.0 °F 33.8 °F 92% 30.10 in 10.0 mi West 3.5 mph - N/A   Overcast
7:15 PM 36.0 °F 33.3 °F 34.0 °F 93% 30.10 in 10.0 mi WSW 3.5 mph - N/A   Overcast
7:35 PM 36.0 °F 33.3 °F 34.0 °F 93% 30.11 in 10.0 mi WSW 3.5 mph - N/A   Overcast
7:55 PM 36.1 °F 33.5 °F 34.2 °F 93% 30.11 in 10.0 mi WSW 3.5 mph - N/A   Overcast
8:15 PM 36.5 °F 33.9 °F 34.3 °F 92% 30.12 in 10.0 mi WNW 3.5 mph - N/A   Overcast
8:35 PM 36.3 °F 32.5 °F 34.5 °F 93% 30.12 in 4.0 mi WNW 4.6 mph - N/A   Overcast
8:55 PM 36.3 °F 31.6 °F 34.7 °F 94% 30.12 in 4.0 mi West 5.8 mph - N/A   Overcast
9:15 PM 36.5 °F 31.8 °F 34.9 °F 94% 30.13 in 7.0 mi West 5.8 mph - N/A   Overcast
9:35 PM 36.5 °F 30.3 °F 35.1 °F 95% 30.13 in 7.0 mi West 8.1 mph - N/A   Overcast
9:55 PM 36.9 °F 30.1 °F 35.2 °F 94% 30.13 in 5.0 mi WNW 9.2 mph - N/A   Light Drizzle
10:15 PM 36.7 °F 32.0 °F 34.7 °F 93% 30.14 in 10.0 mi WNW 5.8 mph - N/A   Overcast
10:35 PM 36.7 °F 32.0 °F 34.2 °F 91% 30.14 in 10.0 mi WNW 5.8 mph - N/A   Overcast
10:55 PM 36.7 °F 32.0 °F 34.2 °F 91% 30.15 in 10.0 mi NW 5.8 mph - N/A   Overcast
11:15 PM 36.5 °F 32.7 °F 34.0 °F 91% 30.15 in 10.0 mi WNW 4.6 mph - N/A   Overcast
11:35 PM 36.5 °F 33.9 °F 33.8 °F 90% 30.15 in 10.0 mi NW 3.5 mph - N/A   Overcast
11:55 PM 36.5 °F 31.8 °F 33.8 °F 90% 30.15 in 10.0 mi NW 5.8 mph - N/A   Overcast